Time;durP1;ratioP1;P1;durP2;ratioP2;P2;SDS_P1;SDS_P2;PMS_P1;PMS_P2;Temp;Humidity;BMP_temperature;BMP_pressure;BME280_temperature;BME280_humidity;BME280_pressure;Samples;Min_cycle;Max_cycle;Signal;HPM_P1;HPM_P2
2022/07/30 00:01:15;;;;;;;11.20;8.52;;;;;;;;;;5041857;28;20202;-70
2022/07/30 00:03:43;;;;;;;8.70;7.95;;;;;;;;;;5042130;28;20202;-70
2022/07/30 00:06:09;;;;;;;8.45;7.72;;;;;;;;;;5041619;28;20286;-70
2022/07/30 00:08:35;;;;;;;8.20;7.45;;;;;;;;;;5041796;28;20204;-70
2022/07/30 00:11:01;;;;;;;7.80;7.20;;;;;;;;;;5041573;28;20193;-70
2022/07/30 00:13:28;;;;;;;10.73;7.30;;;;;;;;;;5041588;28;20363;-70
2022/07/30 00:15:54;;;;;;;7.78;7.15;;;;;;;;;;5041532;28;20225;-70
2022/07/30 00:18:20;;;;;;;11.13;7.03;;;;;;;;;;5041666;28;20211;-70
2022/07/30 00:20:48;;;;;;;7.82;7.03;;;;;;;;;;5041558;28;20198;-70
2022/07/30 00:23:14;;;;;;;8.38;7.20;;;;;;;;;;5041702;28;20539;-70
2022/07/30 00:25:41;;;;;;;11.80;7.10;;;;;;;;;;5041464;28;20222;-70
2022/07/30 00:28:07;;;;;;;7.53;6.93;;;;;;;;;;5041228;28;20427;-70
2022/07/30 00:30:33;;;;;;;9.63;6.35;;;;;;;;;;5041610;28;20340;-70
2022/07/30 00:32:59;;;;;;;7.45;6.57;;;;;;;;;;5041571;28;20430;-70
2022/07/30 00:35:25;;;;;;;6.75;6.10;;;;;;;;;;5041316;28;20294;-70
2022/07/30 00:37:53;;;;;;;9.20;6.45;;;;;;;;;;5041071;28;20509;-70
2022/07/30 00:40:19;;;;;;;9.13;6.18;;;;;;;;;;5041349;28;20419;-70
2022/07/30 00:42:47;;;;;;;7.18;5.93;;;;;;;;;;5041086;28;20201;-70
2022/07/30 00:45:14;;;;;;;7.60;5.40;;;;;;;;;;5040940;28;20278;-70
2022/07/30 00:47:41;;;;;;;10.35;5.45;;;;;;;;;;5041136;28;20243;-70
2022/07/30 00:50:08;;;;;;;9.65;5.10;;;;;;;;;;5041205;28;20198;-70
2022/07/30 00:52:34;;;;;;;8.07;5.65;;;;;;;;;;5040829;28;20434;-70
2022/07/30 00:55:02;;;;;;;8.35;5.28;;;;;;;;;;5041127;28;20239;-70
2022/07/30 00:57:28;;;;;;;8.50;4.68;;;;;;;;;;5040683;28;20198;-70
2022/07/30 00:59:55;;;;;;;6.15;5.60;;;;;;;;;;5041208;28;20202;-70
2022/07/30 01:02:21;;;;;;;6.97;5.35;;;;;;;;;;5040974;28;20422;-70
2022/07/30 01:04:47;;;;;;;5.43;5.03;;;;;;;;;;5040882;28;20229;-70
2022/07/30 01:07:14;;;;;;;5.97;5.07;;;;;;;;;;5040742;28;20392;-70
2022/07/30 01:09:40;;;;;;;5.80;5.25;;;;;;;;;;5040180;28;20366;-70
2022/07/30 01:12:09;;;;;;;5.95;5.20;;;;;;;;;;5041118;28;20269;-70
2022/07/30 01:14:36;;;;;;;5.60;5.05;;;;;;;;;;5040699;28;20362;-70
2022/07/30 01:17:03;;;;;;;6.57;5.25;;;;;;;;;;5040506;28;20197;-70
2022/07/30 01:19:48;;;;;;;9.63;5.22;;;;;;;;;;5040519;28;20251;-70
2022/07/30 01:22:17;;;;;;;6.45;4.95;;;;;;;;;;5040673;28;20197;-70
2022/07/30 01:24:46;;;;;;;6.45;4.95;;;;;;;;;;5040497;28;20442;-70
2022/07/30 01:27:14;;;;;;;5.88;5.28;;;;;;;;;;5040434;28;20505;-70
2022/07/30 01:29:42;;;;;;;5.90;5.40;;;;;;;;;;5040505;28;20198;-70
2022/07/30 01:32:10;;;;;;;6.25;4.55;;;;;;;;;;5040415;28;20204;-70
2022/07/30 01:34:37;;;;;;;7.38;5.85;;;;;;;;;;5040574;28;20566;-70
2022/07/30 01:37:04;;;;;;;5.55;5.15;;;;;;;;;;5040184;28;20374;-70
2022/07/30 01:39:31;;;;;;;6.43;5.85;;;;;;;;;;5040423;28;20205;-70
2022/07/30 01:41:58;;;;;;;6.55;5.53;;;;;;;;;;5040354;28;20220;-70
2022/07/30 01:44:27;;;;;;;5.95;4.97;;;;;;;;;;5040083;28;20208;-70
2022/07/30 01:46:54;;;;;;;8.55;5.47;;;;;;;;;;5039925;28;20493;-70
2022/07/30 01:49:21;;;;;;;5.32;4.88;;;;;;;;;;5040395;28;20206;-70
2022/07/30 01:51:48;;;;;;;5.55;5.00;;;;;;;;;;5040237;28;20412;-70
2022/07/30 01:54:17;;;;;;;8.32;5.90;;;;;;;;;;5039333;28;20205;-70
2022/07/30 01:56:44;;;;;;;5.93;5.43;;;;;;;;;;5039786;28;20208;-70
2022/07/30 01:59:11;;;;;;;7.88;5.38;;;;;;;;;;5040068;28;20454;-70
2022/07/30 02:01:39;;;;;;;6.00;5.60;;;;;;;;;;5040108;28;20197;-70
2022/07/30 02:04:05;;;;;;;7.30;5.40;;;;;;;;;;5039908;28;20198;-70
2022/07/30 02:06:32;;;;;;;9.68;5.90;;;;;;;;;;5039679;28;20222;-70
2022/07/30 02:09:01;;;;;;;11.82;5.95;;;;;;;;;;5039984;28;20194;-70
2022/07/30 02:14:19;;;;;;;9.65;5.57;;;;;;;;;;5039935;28;20197;-70
2022/07/30 02:16:49;;;;;;;5.72;5.28;;;;;;;;;;5039816;28;20201;-70
2022/07/30 02:19:16;;;;;;;11.23;6.57;;;;;;;;;;5039739;28;20386;-70
2022/07/30 02:21:45;;;;;;;7.82;6.20;;;;;;;;;;5039742;28;20224;-70
2022/07/30 02:24:14;;;;;;;7.40;6.53;;;;;;;;;;5039672;28;20198;-70
2022/07/30 02:26:41;;;;;;;8.10;6.43;;;;;;;;;;5039402;28;20217;-70
2022/07/30 02:29:08;;;;;;;6.57;5.95;;;;;;;;;;5039501;28;20205;-70
2022/07/30 02:31:35;;;;;;;8.23;6.28;;;;;;;;;;5039431;28;20207;-70
2022/07/30 02:34:04;;;;;;;7.03;6.32;;;;;;;;;;5039474;28;20235;-70
2022/07/30 02:36:31;;;;;;;6.93;6.32;;;;;;;;;;5039297;28;20201;-70
2022/07/30 02:38:58;;;;;;;8.13;6.80;;;;;;;;;;5039323;28;20209;-70
2022/07/30 02:41:26;;;;;;;11.50;5.90;;;;;;;;;;5039576;28;20204;-70
2022/07/30 02:43:53;;;;;;;8.60;6.10;;;;;;;;;;5039366;28;20454;-70
2022/07/30 02:46:19;;;;;;;7.25;6.55;;;;;;;;;;5039049;28;20260;-70
2022/07/30 02:48:46;;;;;;;7.07;6.40;;;;;;;;;;5039342;28;20197;-70
2022/07/30 02:51:15;;;;;;;7.53;6.30;;;;;;;;;;5039170;28;20397;-70
2022/07/30 02:53:43;;;;;;;9.48;6.40;;;;;;;;;;5039486;28;20456;-70
2022/07/30 02:56:10;;;;;;;6.88;5.90;;;;;;;;;;5039035;28;20197;-70
2022/07/30 02:58:38;;;;;;;8.50;5.82;;;;;;;;;;5039118;28;20198;-70
2022/07/30 03:01:04;;;;;;;6.15;5.65;;;;;;;;;;5039295;28;20236;-70
2022/07/30 03:03:31;;;;;;;6.30;5.80;;;;;;;;;;5039327;28;20296;-70
2022/07/30 03:05:58;;;;;;;6.82;6.28;;;;;;;;;;5039912;28;20532;-70
2022/07/30 03:08:26;;;;;;;8.90;5.55;;;;;;;;;;5042730;28;20198;-70
2022/07/30 03:10:53;;;;;;;5.93;5.53;;;;;;;;;;5042819;28;20430;-70
2022/07/30 03:13:20;;;;;;;6.68;6.05;;;;;;;;;;5042654;28;20205;-70
2022/07/30 03:15:48;;;;;;;6.25;5.72;;;;;;;;;;5042929;28;20637;-70
2022/07/30 03:18:16;;;;;;;6.85;5.55;;;;;;;;;;5042140;28;20197;-70
2022/07/30 03:20:44;;;;;;;6.18;5.72;;;;;;;;;;5042737;28;20206;-70
2022/07/30 03:23:11;;;;;;;6.50;5.68;;;;;;;;;;5042529;28;20243;-70
2022/07/30 03:25:39;;;;;;;5.70;5.15;;;;;;;;;;5042442;28;20289;-70
2022/07/30 03:28:05;;;;;;;8.35;5.22;;;;;;;;;;5042277;28;20201;-70
2022/07/30 03:30:33;;;;;;;6.57;5.45;;;;;;;;;;5042311;28;20198;-70
2022/07/30 03:32:59;;;;;;;6.72;5.63;;;;;;;;;;5042363;28;20205;-70
2022/07/30 03:35:26;;;;;;;5.93;5.22;;;;;;;;;;5042483;28;20202;-70
2022/07/30 03:37:53;;;;;;;8.15;5.03;;;;;;;;;;5042186;28;20202;-70
2022/07/30 03:40:19;;;;;;;6.53;5.78;;;;;;;;;;5042357;28;20198;-70
2022/07/30 03:42:48;;;;;;;5.70;4.80;;;;;;;;;;5042210;28;20201;-70
2022/07/30 03:45:14;;;;;;;7.45;5.25;;;;;;;;;;5042108;28;20221;-70
2022/07/30 03:47:42;;;;;;;5.57;5.07;;;;;;;;;;5041709;28;20533;-70
2022/07/30 03:50:09;;;;;;;5.45;5.07;;;;;;;;;;5042134;28;20205;-70
2022/07/30 03:52:37;;;;;;;6.45;5.85;;;;;;;;;;5042031;28;20221;-70
2022/07/30 03:55:04;;;;;;;5.57;5.13;;;;;;;;;;5041995;28;20205;-70
2022/07/30 03:57:30;;;;;;;7.38;5.57;;;;;;;;;;5041599;28;20205;-70
2022/07/30 03:59:58;;;;;;;5.80;5.28;;;;;;;;;;5041917;28;20520;-70
2022/07/30 04:02:24;;;;;;;6.35;5.72;;;;;;;;;;5041992;28;20521;-70
2022/07/30 04:04:51;;;;;;;9.32;5.30;;;;;;;;;;5041846;28;20409;-70
2022/07/30 04:07:17;;;;;;;6.43;5.40;;;;;;;;;;5041572;28;20221;-70
2022/07/30 04:09:43;;;;;;;5.93;5.25;;;;;;;;;;5042293;28;20200;-70
2022/07/30 04:12:12;;;;;;;5.20;4.70;;;;;;;;;;5041712;28;20504;-70
2022/07/30 04:14:39;;;;;;;7.18;5.78;;;;;;;;;;5041513;28;20483;-70
2022/07/30 04:17:09;;;;;;;5.78;5.28;;;;;;;;;;5040894;28;20197;-68
2022/07/30 04:19:38;;;;;;;7.47;5.22;;;;;;;;;;5041724;28;20237;-68
2022/07/30 04:22:05;;;;;;;5.25;4.60;;;;;;;;;;5041498;28;20202;-68
2022/07/30 04:24:32;;;;;;;7.38;5.60;;;;;;;;;;5041591;28;20221;-68
2022/07/30 04:26:58;;;;;;;5.85;5.38;;;;;;;;;;5041143;28;20285;-68
2022/07/30 04:29:25;;;;;;;7.70;5.32;;;;;;;;;;5041601;28;20835;-68
2022/07/30 04:31:51;;;;;;;8.32;5.22;;;;;;;;;;5041482;28;20206;-68
2022/07/30 04:34:18;;;;;;;6.68;5.28;;;;;;;;;;5041516;28;20505;-68
2022/07/30 04:36:45;;;;;;;5.93;5.43;;;;;;;;;;5041292;28;20658;-68
2022/07/30 04:39:11;;;;;;;6.00;5.25;;;;;;;;;;5041334;28;20520;-68
2022/07/30 04:41:38;;;;;;;8.35;5.20;;;;;;;;;;5041188;28;20198;-68
2022/07/30 04:44:04;;;;;;;6.38;5.78;;;;;;;;;;5041420;28;20202;-68
2022/07/30 04:46:30;;;;;;;10.00;5.88;;;;;;;;;;5041065;28;20222;-68
2022/07/30 04:48:57;;;;;;;6.05;5.63;;;;;;;;;;5041240;28;20202;-68
2022/07/30 04:51:26;;;;;;;5.68;5.18;;;;;;;;;;5041228;28;20198;-68
2022/07/30 04:53:53;;;;;;;5.38;5.07;;;;;;;;;;5041130;28;20206;-68
2022/07/30 04:56:20;;;;;;;6.75;5.68;;;;;;;;;;5040679;28;20201;-68
2022/07/30 04:58:47;;;;;;;5.97;5.45;;;;;;;;;;5041114;28;20205;-68
2022/07/30 05:01:16;;;;;;;6.90;6.00;;;;;;;;;;5041053;28;20211;-68
2022/07/30 05:03:43;;;;;;;10.80;6.15;;;;;;;;;;5041023;28;20506;-68
2022/07/30 05:06:10;;;;;;;7.45;5.72;;;;;;;;;;5040616;28;20225;-68
2022/07/30 05:08:39;;;;;;;6.93;6.20;;;;;;;;;;5040719;28;20220;-68
2022/07/30 05:11:13;;;;;;;7.50;5.75;;;;;;;;;;5041007;28;20393;-68
2022/07/30 05:13:40;;;;;;;6.25;5.65;;;;;;;;;;5040821;28;20204;-68
2022/07/30 05:16:07;;;;;;;6.38;5.80;;;;;;;;;;5040577;28;20210;-68
2022/07/30 05:18:33;;;;;;;7.30;6.15;;;;;;;;;;5040599;28;20243;-69
2022/07/30 05:21:00;;;;;;;6.50;6.00;;;;;;;;;;5040793;28;20198;-68
2022/07/30 05:23:26;;;;;;;7.15;6.28;;;;;;;;;;5040664;28;20198;-68
2022/07/30 05:25:53;;;;;;;6.45;5.90;;;;;;;;;;5040514;28;20217;-68
2022/07/30 05:28:21;;;;;;;6.50;6.10;;;;;;;;;;5039443;28;20198;-68
2022/07/30 05:30:47;;;;;;;6.97;5.95;;;;;;;;;;5040583;28;20465;-68
2022/07/30 05:33:13;;;;;;;7.82;6.80;;;;;;;;;;5040609;28;20198;-68
2022/07/30 05:35:39;;;;;;;6.20;5.90;;;;;;;;;;5040329;28;20197;-68
2022/07/30 05:38:06;;;;;;;6.88;5.93;;;;;;;;;;5040239;28;20206;-68
2022/07/30 05:40:32;;;;;;;7.25;6.65;;;;;;;;;;5040365;28;20205;-68
2022/07/30 05:42:59;;;;;;;8.07;6.68;;;;;;;;;;5040493;28;20202;-69
2022/07/30 05:45:26;;;;;;;6.40;5.90;;;;;;;;;;5040456;28;20198;-68
2022/07/30 05:47:52;;;;;;;6.50;6.00;;;;;;;;;;5039955;28;20222;-68
2022/07/30 05:50:18;;;;;;;6.20;5.65;;;;;;;;;;5040247;28;20516;-68
2022/07/30 05:52:44;;;;;;;8.98;6.70;;;;;;;;;;5040290;28;20565;-68
2022/07/30 05:55:12;;;;;;;9.82;6.65;;;;;;;;;;5040375;28;20506;-68
2022/07/30 05:57:40;;;;;;;9.77;7.05;;;;;;;;;;5039850;28;20215;-69
2022/07/30 06:00:09;;;;;;;6.85;6.35;;;;;;;;;;5040041;28;20520;-68
2022/07/30 06:02:35;;;;;;;7.15;6.55;;;;;;;;;;5040120;28;20542;-68
2022/07/30 06:05:02;;;;;;;10.95;7.38;;;;;;;;;;5039811;28;20221;-68
2022/07/30 06:07:29;;;;;;;9.45;7.15;;;;;;;;;;5039819;28;20262;-68
2022/07/30 06:09:58;;;;;;;7.30;6.70;;;;;;;;;;5040084;28;20208;-69
2022/07/30 06:12:25;;;;;;;8.18;7.47;;;;;;;;;;5039866;28;20235;-69
2022/07/30 06:14:51;;;;;;;8.52;7.85;;;;;;;;;;5039893;28;20209;-69
2022/07/30 06:17:18;;;;;;;9.95;8.35;;;;;;;;;;5039545;28;20193;-69
2022/07/30 06:19:45;;;;;;;8.05;7.38;;;;;;;;;;5039727;28;20239;-69
2022/07/30 06:22:11;;;;;;;7.97;7.18;;;;;;;;;;5039988;28;20198;-69
2022/07/30 06:24:37;;;;;;;9.65;7.50;;;;;;;;;;5039979;28;20197;-69
2022/07/30 06:27:04;;;;;;;8.20;7.15;;;;;;;;;;5039445;28;20225;-69
2022/07/30 06:29:30;;;;;;;8.52;7.80;;;;;;;;;;5039529;28;20446;-69
2022/07/30 06:31:56;;;;;;;9.10;7.50;;;;;;;;;;5039572;28;20382;-69
2022/07/30 06:34:24;;;;;;;7.80;7.18;;;;;;;;;;5039453;28;20209;-69
2022/07/30 06:36:50;;;;;;;9.23;8.07;;;;;;;;;;5039656;28;20198;-69
2022/07/30 06:39:16;;;;;;;8.30;7.63;;;;;;;;;;5039388;28;20198;-68
2022/07/30 06:41:43;;;;;;;9.73;7.15;;;;;;;;;;5039408;28;20438;-68
2022/07/30 06:44:09;;;;;;;8.32;7.53;;;;;;;;;;5039418;28;20198;-69
2022/07/30 06:46:35;;;;;;;7.30;6.70;;;;;;;;;;5039051;28;20225;-69
2022/07/30 06:49:02;;;;;;;8.02;7.22;;;;;;;;;;5039478;28;20528;-69
2022/07/30 06:51:29;;;;;;;7.63;7.03;;;;;;;;;;5039496;28;20196;-69
2022/07/30 06:53:55;;;;;;;7.75;7.10;;;;;;;;;;5039221;28;20205;-68
2022/07/30 06:56:22;;;;;;;7.55;6.80;;;;;;;;;;5039679;28;20215;-68
2022/07/30 06:58:48;;;;;;;7.43;6.70;;;;;;;;;;5039920;28;20220;-68
2022/07/30 07:01:14;;;;;;;7.60;6.88;;;;;;;;;;5039252;28;20198;-68
2022/07/30 07:03:40;;;;;;;10.45;6.90;;;;;;;;;;5039558;28;20205;-68
2022/07/30 07:06:07;;;;;;;8.20;6.72;;;;;;;;;;5039124;28;20225;-68
2022/07/30 07:08:36;;;;;;;7.88;6.70;;;;;;;;;;5039295;28;20527;-68
2022/07/30 07:11:02;;;;;;;13.90;6.43;;;;;;;;;;5039101;28;20497;-68
2022/07/30 07:13:28;;;;;;;7.13;6.35;;;;;;;;;;5039180;28;20429;-69
2022/07/30 07:15:55;;;;;;;6.80;5.70;;;;;;;;;;5038815;28;20197;-69
2022/07/30 07:18:21;;;;;;;6.13;5.53;;;;;;;;;;5037880;28;20190;-69
2022/07/30 07:20:47;;;;;;;6.13;5.32;;;;;;;;;;5039130;28;20198;-69
2022/07/30 07:23:13;;;;;;;7.63;5.68;;;;;;;;;;5038748;28;20198;-68
2022/07/30 07:25:41;;;;;;;7.25;5.95;;;;;;;;;;5039065;28;20194;-68
2022/07/30 07:28:07;;;;;;;7.18;5.25;;;;;;;;;;5038594;28;20412;-69
2022/07/30 07:30:34;;;;;;;10.38;5.97;;;;;;;;;;5038886;28;20198;-69
2022/07/30 07:33:00;;;;;;;8.38;6.85;;;;;;;;;;5039139;28;20198;-69
2022/07/30 07:35:26;;;;;;;9.60;6.68;;;;;;;;;;5039010;28;20243;-69
2022/07/30 07:37:52;;;;;;;8.57;5.45;;;;;;;;;;5038738;28;20197;-69
2022/07/30 07:40:19;;;;;;;9.05;5.60;;;;;;;;;;5038870;28;20454;-69
2022/07/30 07:42:46;;;;;;;6.72;6.03;;;;;;;;;;5038800;28;20202;-69
2022/07/30 07:45:12;;;;;;;8.93;5.55;;;;;;;;;;5038627;28;20221;-69
2022/07/30 07:47:42;;;;;;;9.52;5.57;;;;;;;;;;5038534;28;20437;-69
2022/07/30 07:50:09;;;;;;;8.32;5.72;;;;;;;;;;5038853;28;20202;-69
2022/07/30 07:52:35;;;;;;;8.10;5.40;;;;;;;;;;5040380;28;20521;-68
2022/07/30 07:55:01;;;;;;;10.57;6.43;;;;;;;;;;5042173;28;20266;-68
2022/07/30 07:57:28;;;;;;;11.68;5.93;;;;;;;;;;5041722;28;20194;-68
2022/07/30 07:59:56;;;;;;;11.32;4.95;;;;;;;;;;5041673;28;20513;-68
2022/07/30 08:02:22;;;;;;;9.57;5.55;;;;;;;;;;5041104;28;20206;-68
2022/07/30 08:04:49;;;;;;;6.72;4.72;;;;;;;;;;5040659;28;20210;-68
2022/07/30 08:07:15;;;;;;;8.43;4.50;;;;;;;;;;5040838;28;20213;-68
2022/07/30 08:09:41;;;;;;;6.22;4.20;;;;;;;;;;5041964;28;20197;-68
2022/07/30 08:12:08;;;;;;;8.93;5.32;;;;;;;;;;5042133;28;20202;-68
2022/07/30 08:14:34;;;;;;;12.32;5.65;;;;;;;;;;5041776;28;20198;-69
2022/07/30 08:17:03;;;;;;;7.63;5.78;;;;;;;;;;5041633;28;20201;-69
2022/07/30 08:19:29;;;;;;;5.78;4.05;;;;;;;;;;5041747;28;20197;-69
2022/07/30 08:21:58;;;;;;;5.18;3.53;;;;;;;;;;5041745;28;20220;-68
2022/07/30 08:24:24;;;;;;;7.72;3.95;;;;;;;;;;5041709;28;20561;-69
2022/07/30 08:26:50;;;;;;;7.78;3.65;;;;;;;;;;5041148;28;20217;-69
2022/07/30 08:29:17;;;;;;;7.15;3.60;;;;;;;;;;5042025;28;20448;-69
2022/07/30 08:31:43;;;;;;;3.35;3.15;;;;;;;;;;5041538;28;20197;-69
2022/07/30 08:34:12;;;;;;;5.18;4.68;;;;;;;;;;5041557;28;20201;-69
2022/07/30 08:36:38;;;;;;;5.57;3.65;;;;;;;;;;5041315;28;20232;-68
2022/07/30 08:39:04;;;;;;;3.80;3.28;;;;;;;;;;5041293;28;20208;-69
2022/07/30 08:41:30;;;;;;;8.90;3.08;;;;;;;;;;5041285;28;20198;-69
2022/07/30 08:43:59;;;;;;;6.72;3.63;;;;;;;;;;5041619;28;20459;-69
2022/07/30 08:46:27;;;;;;;10.05;3.67;;;;;;;;;;5041147;28;20202;-69
2022/07/30 08:48:54;;;;;;;3.60;2.92;;;;;;;;;;5041326;28;20205;-69
2022/07/30 08:51:22;;;;;;;4.03;2.22;;;;;;;;;;5041147;28;20193;-69
2022/07/30 08:53:48;;;;;;;4.63;2.80;;;;;;;;;;5041281;28;20217;-69
2022/07/30 08:56:15;;;;;;;3.40;3.10;;;;;;;;;;5040909;28;20205;-69
2022/07/30 08:58:41;;;;;;;5.38;3.17;;;;;;;;;;5041431;28;20497;-69
2022/07/30 09:01:07;;;;;;;5.03;2.85;;;;;;;;;;5040976;28;20235;-69
2022/07/30 09:03:34;;;;;;;5.22;2.40;;;;;;;;;;5040751;28;20243;-67
2022/07/30 09:06:00;;;;;;;4.13;3.00;;;;;;;;;;5040479;28;20229;-69
2022/07/30 09:08:28;;;;;;;3.65;2.80;;;;;;;;;;5041071;28;20225;-67
2022/07/30 09:10:54;;;;;;;4.13;2.88;;;;;;;;;;5040985;28;20217;-67
2022/07/30 09:13:25;;;;;;;2.60;2.40;;;;;;;;;;5040915;28;20488;-67
2022/07/30 09:15:51;;;;;;;21.92;2.60;;;;;;;;;;5040791;28;20203;-67
2022/07/30 09:18:26;;;;;;;4.53;2.38;;;;;;;;;;5040432;28;20196;-67
2022/07/30 09:20:52;;;;;;;4.22;2.10;;;;;;;;;;5040631;28;20197;-67
2022/07/30 09:23:18;;;;;;;3.65;1.92;;;;;;;;;;5040731;28;20234;-67
2022/07/30 09:25:46;;;;;;;5.80;2.80;;;;;;;;;;5040653;28;20250;-67
2022/07/30 09:28:13;;;;;;;4.15;2.25;;;;;;;;;;5040466;28;20221;-67
2022/07/30 09:30:43;;;;;;;5.50;2.38;;;;;;;;;;5040573;28;20204;-67
2022/07/30 09:33:09;;;;;;;9.43;2.75;;;;;;;;;;5040360;28;20377;-67
2022/07/30 09:35:36;;;;;;;4.57;2.20;;;;;;;;;;5040731;28;20197;-67
2022/07/30 09:38:03;;;;;;;2.45;2.33;;;;;;;;;;5040522;28;20374;-67
2022/07/30 09:40:29;;;;;;;3.15;2.40;;;;;;;;;;5040296;28;20197;-67
2022/07/30 09:43:04;;;;;;;3.03;2.35;;;;;;;;;;5040475;28;20198;-67
2022/07/30 09:45:31;;;;;;;2.75;2.10;;;;;;;;;;5040224;28;20204;-68
2022/07/30 09:47:58;;;;;;;4.88;1.70;;;;;;;;;;5039829;28;20213;-68
2022/07/30 09:50:25;;;;;;;7.72;2.20;;;;;;;;;;5040081;28;20204;-68
2022/07/30 09:52:52;;;;;;;3.15;2.13;;;;;;;;;;5040195;28;20441;-68
2022/07/30 09:55:29;;;;;;;4.22;1.90;;;;;;;;;;5040223;28;20384;-67
2022/07/30 09:57:56;;;;;;;7.50;2.15;;;;;;;;;;5040292;28;20392;-68
2022/07/30 10:00:25;;;;;;;2.83;2.42;;;;;;;;;;5039804;28;20197;-68
2022/07/30 10:02:52;;;;;;;2.40;2.00;;;;;;;;;;5040279;28;20197;-68
2022/07/30 10:05:19;;;;;;;6.72;2.30;;;;;;;;;;5039825;28;20244;-67
2022/07/30 10:07:50;;;;;;;3.45;2.08;;;;;;;;;;5039654;28;20228;-67
2022/07/30 10:10:17;;;;;;;4.40;2.42;;;;;;;;;;5039773;28;20528;-67
2022/07/30 10:12:45;;;;;;;3.15;2.05;;;;;;;;;;5040401;28;20413;-67
2022/07/30 10:15:11;;;;;;;4.15;2.10;;;;;;;;;;5039395;28;20198;-68
2022/07/30 10:17:40;;;;;;;5.72;2.13;;;;;;;;;;5039777;28;20200;-67
2022/07/30 10:20:08;;;;;;;10.50;2.10;;;;;;;;;;5039668;28;20505;-67
2022/07/30 10:22:34;;;;;;;5.10;1.88;;;;;;;;;;5039750;28;20484;-68
2022/07/30 10:25:01;;;;;;;4.40;2.03;;;;;;;;;;5039722;28;20372;-68
2022/07/30 10:27:27;;;;;;;2.97;1.90;;;;;;;;;;5039188;28;20224;-68
2022/07/30 10:29:54;;;;;;;2.20;2.00;;;;;;;;;;5039878;28;20201;-68
2022/07/30 10:32:20;;;;;;;4.28;1.60;;;;;;;;;;5039528;28;20216;-68
2022/07/30 10:34:48;;;;;;;3.08;2.03;;;;;;;;;;5039878;28;20213;-68
2022/07/30 10:37:15;;;;;;;2.28;1.65;;;;;;;;;;5039491;28;20196;-68
2022/07/30 10:39:44;;;;;;;2.33;1.83;;;;;;;;;;5039503;28;20198;-68
2022/07/30 10:42:16;;;;;;;1.63;1.50;;;;;;;;;;5039581;28;20205;-68
2022/07/30 10:45:07;;;;;;;2.95;1.80;;;;;;;;;;5039524;28;20204;-68
2022/07/30 10:47:34;;;;;;;5.22;1.65;;;;;;;;;;5039350;28;20240;-68
2022/07/30 10:50:06;;;;;;;1.98;1.45;;;;;;;;;;5039430;28;20197;-68
2022/07/30 10:52:46;;;;;;;1.75;1.55;;;;;;;;;;5039064;28;20197;-68
2022/07/30 10:55:13;;;;;;;1.98;1.55;;;;;;;;;;5039428;28;20197;-68
2022/07/30 10:57:54;;;;;;;3.47;1.42;;;;;;;;;;5038995;28;20512;-68
2022/07/30 11:00:21;;;;;;;3.63;1.40;;;;;;;;;;5039160;28;20201;-68
2022/07/30 11:03:05;;;;;;;2.00;1.50;;;;;;;;;;5039118;28;20415;-68
2022/07/30 11:05:33;;;;;;;2.78;1.50;;;;;;;;;;5039125;28;20225;-67
2022/07/30 11:08:14;;;;;;;2.35;1.50;;;;;;;;;;5038915;28;20242;-68
2022/07/30 11:10:41;;;;;;;2.70;1.48;;;;;;;;;;5039124;28;20519;-68
2022/07/30 11:13:08;;;;;;;1.75;1.30;;;;;;;;;;5039020;28;20373;-68
2022/07/30 11:15:52;;;;;;;2.22;1.73;;;;;;;;;;5038872;28;20205;-68
2022/07/30 11:18:18;;;;;;;1.67;1.15;;;;;;;;;;5038817;28;20473;-68
2022/07/30 11:21:05;;;;;;;2.03;1.58;;;;;;;;;;5039050;28;20205;-68
2022/07/30 11:23:36;;;;;;;6.22;1.40;;;;;;;;;;5038631;28;20205;-68
2022/07/30 11:26:02;;;;;;;4.80;1.55;;;;;;;;;;5038703;28;20224;-68
2022/07/30 11:28:39;;;;;;;3.22;1.50;;;;;;;;;;5041844;28;20438;-68
2022/07/30 11:31:20;;;;;;;1.50;1.40;;;;;;;;;;5042425;28;20392;-68
2022/07/30 11:33:46;;;;;;;3.15;1.38;;;;;;;;;;5042262;28;20282;-68
2022/07/30 11:36:14;;;;;;;5.85;1.50;;;;;;;;;;5041949;28;20205;-68
2022/07/30 11:39:01;;;;;;;1.63;1.52;;;;;;;;;;5042285;28;20389;-68
2022/07/30 11:41:27;;;;;;;2.50;1.33;;;;;;;;;;5043523;28;20505;-68
2022/07/30 11:44:12;;;;;;;3.90;1.30;;;;;;;;;;5042294;28;20251;-68
2022/07/30 11:46:47;;;;;;;3.90;1.35;;;;;;;;;;5041684;28;20204;-68
2022/07/30 11:49:14;;;;;;;6.85;1.50;;;;;;;;;;5041926;28;20261;-68
2022/07/30 11:51:42;;;;;;;9.88;1.50;;;;;;;;;;5042016;28;20196;-68
2022/07/30 11:54:10;;;;;;;2.58;1.60;;;;;;;;;;5042000;28;20258;-70
2022/07/30 11:56:37;;;;;;;1.17;1.00;;;;;;;;;;5041690;28;20198;-69
2022/07/30 11:59:03;;;;;;;2.70;1.33;;;;;;;;;;5040031;28;20185;-70
2022/07/30 12:01:32;;;;;;;4.95;1.55;;;;;;;;;;5032225;28;20194;-70
2022/07/30 12:04:01;;;;;;;3.47;1.45;;;;;;;;;;5030682;28;20213;-70
2022/07/30 12:06:30;;;;;;;3.00;1.60;;;;;;;;;;5023039;28;20222;-70
2022/07/30 12:08:58;;;;;;;3.70;1.23;;;;;;;;;;5025588;28;20536;-70
2022/07/30 12:11:25;;;;;;;3.15;1.73;;;;;;;;;;5031604;28;20356;-70
2022/07/30 12:13:55;;;;;;;3.13;1.10;;;;;;;;;;5032113;28;20229;-70
2022/07/30 12:16:22;;;;;;;3.55;1.17;;;;;;;;;;5021492;28;20205;-70
2022/07/30 12:18:48;;;;;;;4.25;1.33;;;;;;;;;;5021529;28;20195;-70
2022/07/30 12:21:15;;;;;;;1.50;1.40;;;;;;;;;;5021201;28;20210;-70
2022/07/30 12:23:42;;;;;;;2.83;1.40;;;;;;;;;;5021568;28;20197;-70
2022/07/30 12:26:19;;;;;;;2.35;1.05;;;;;;;;;;5021338;28;20206;-70
2022/07/30 12:28:46;;;;;;;3.38;1.00;;;;;;;;;;5021691;28;20229;-70
2022/07/30 12:31:14;;;;;;;3.60;1.30;;;;;;;;;;5026322;27;20214;-69
2022/07/30 12:33:41;;;;;;;6.72;1.42;;;;;;;;;;5034856;28;20545;-69
2022/07/30 12:36:09;;;;;;;6.57;1.30;;;;;;;;;;5033511;27;20206;-69
2022/07/30 12:38:43;;;;;;;1.52;1.20;;;;;;;;;;5040056;28;20227;-69
2022/07/30 12:41:10;;;;;;;3.00;1.10;;;;;;;;;;5041247;28;20242;-68
2022/07/30 12:43:43;;;;;;;2.72;1.10;;;;;;;;;;5040624;28;20240;-68
2022/07/30 12:46:10;;;;;;;3.38;1.38;;;;;;;;;;5039965;28;20268;-68
2022/07/30 12:48:36;;;;;;;1.08;1.08;;;;;;;;;;5040937;28;20217;-68
2022/07/30 12:51:06;;;;;;;4.53;1.25;;;;;;;;;;5041059;28;20201;-68
2022/07/30 12:53:32;;;;;;;4.00;1.40;;;;;;;;;;5040204;28;20217;-69
2022/07/30 12:56:11;;;;;;;2.13;1.10;;;;;;;;;;5041014;28;20527;-68
2022/07/30 12:58:38;;;;;;;1.20;1.20;;;;;;;;;;5041038;28;20238;-68
2022/07/30 13:01:04;;;;;;;1.02;1.00;;;;;;;;;;5040872;28;20201;-68
2022/07/30 13:03:38;;;;;;;3.15;1.48;;;;;;;;;;5040781;28;20204;-69
2022/07/30 13:06:11;;;;;;;3.88;1.17;;;;;;;;;;5040724;28;20533;-68
2022/07/30 13:09:01;;;;;;;3.13;1.30;;;;;;;;;;5040639;28;20221;-68
2022/07/30 13:11:40;;;;;;;1.17;1.08;;;;;;;;;;5026018;28;20201;-68
2022/07/30 13:14:06;;;;;;;2.63;1.05;;;;;;;;;;5040594;28;20198;-68
2022/07/30 13:16:33;;;;;;;2.78;1.10;;;;;;;;;;5040576;28;20218;-68
2022/07/30 13:18:59;;;;;;;5.53;1.13;;;;;;;;;;5040466;28;20197;-68
2022/07/30 13:21:25;;;;;;;1.35;1.25;;;;;;;;;;5040479;28;20279;-68
2022/07/30 13:23:51;;;;;;;2.15;1.10;;;;;;;;;;5040568;28;20202;-68
2022/07/30 13:26:18;;;;;;;0.95;0.95;;;;;;;;;;5040167;28;20205;-68
2022/07/30 13:28:45;;;;;;;2.70;1.20;;;;;;;;;;5040700;28;20266;-68
2022/07/30 13:31:12;;;;;;;2.53;1.10;;;;;;;;;;5040673;28;20497;-68
2022/07/30 13:33:39;;;;;;;1.13;0.90;;;;;;;;;;5040462;28;20216;-68
2022/07/30 13:36:06;;;;;;;3.20;1.00;;;;;;;;;;5040085;28;20197;-68
2022/07/30 13:38:32;;;;;;;1.02;1.02;;;;;;;;;;5040595;28;20197;-68
2022/07/30 13:40:58;;;;;;;1.23;1.10;;;;;;;;;;5040135;28;20240;-68
2022/07/30 13:43:25;;;;;;;2.58;1.15;;;;;;;;;;5040167;28;20198;-68
2022/07/30 13:45:53;;;;;;;2.88;0.90;;;;;;;;;;5040166;28;20201;-68
2022/07/30 13:48:19;;;;;;;3.03;1.08;;;;;;;;;;5040071;28;20409;-68
2022/07/30 13:50:45;;;;;;;2.08;0.98;;;;;;;;;;5039169;28;20197;-68
2022/07/30 13:53:12;;;;;;;2.20;1.23;;;;;;;;;;5039993;28;20205;-68
2022/07/30 13:55:39;;;;;;;0.90;0.90;;;;;;;;;;5040038;28;20389;-68
2022/07/30 13:58:06;;;;;;;3.30;0.93;;;;;;;;;;5039604;28;20198;-68
2022/07/30 14:00:32;;;;;;;1.30;1.00;;;;;;;;;;5039937;28;20205;-68
2022/07/30 14:03:01;;;;;;;1.90;1.02;;;;;;;;;;5039983;28;20204;-68
2022/07/30 14:05:27;;;;;;;1.20;0.88;;;;;;;;;;5039685;28;20222;-68
2022/07/30 14:07:54;;;;;;;2.33;1.15;;;;;;;;;;5039579;28;20225;-68
2022/07/30 14:10:21;;;;;;;5.78;1.40;;;;;;;;;;5040084;28;20274;-68
2022/07/30 14:12:47;;;;;;;1.23;1.13;;;;;;;;;;5039855;28;20210;-68
2022/07/30 14:15:14;;;;;;;1.25;1.10;;;;;;;;;;5039854;28;20234;-68
2022/07/30 14:17:40;;;;;;;4.10;1.10;;;;;;;;;;5039354;28;20201;-68
2022/07/30 14:20:08;;;;;;;6.13;1.20;;;;;;;;;;5039424;28;20453;-68
2022/07/30 14:22:34;;;;;;;1.05;1.05;;;;;;;;;;5039555;28;20201;-68
2022/07/30 14:25:00;;;;;;;2.05;1.00;;;;;;;;;;5039517;28;20197;-68
2022/07/30 14:27:27;;;;;;;1.65;1.00;;;;;;;;;;5039531;28;20197;-68
2022/07/30 14:29:53;;;;;;;1.20;1.20;;;;;;;;;;5039492;28;20221;-68
2022/07/30 14:32:19;;;;;;;4.20;1.58;;;;;;;;;;5039482;28;20239;-68
2022/07/30 14:34:45;;;;;;;2.35;1.10;;;;;;;;;;5039359;28;20202;-68
2022/07/30 14:37:13;;;;;;;3.50;1.00;;;;;;;;;;5039159;28;20204;-68
2022/07/30 14:39:39;;;;;;;1.83;0.90;;;;;;;;;;5038951;28;20514;-68
2022/07/30 14:42:06;;;;;;;1.98;1.20;;;;;;;;;;5039002;28;20205;-68
2022/07/30 14:44:32;;;;;;;1.80;1.20;;;;;;;;;;5039121;28;20204;-68
2022/07/30 14:46:58;;;;;;;1.50;1.25;;;;;;;;;;5038966;28;20433;-68
2022/07/30 14:49:24;;;;;;;1.50;1.05;;;;;;;;;;5039174;28;20221;-68